sensor_id;sensor_type;location;lat;lon;timestamp;P1;durP1;ratioP1;P2;durP2;ratioP2
61938;SDS011;47897;50.322;18.892;2022-08-11T00:00:36;9.70;;;6.00;;
61938;SDS011;47897;50.322;18.892;2022-08-11T00:03:05;8.90;;;5.60;;
61938;SDS011;47897;50.322;18.892;2022-08-11T00:05:49;10.60;;;6.90;;
61938;SDS011;47897;50.322;18.892;2022-08-11T00:08:19;9.40;;;6.10;;
61938;SDS011;47897;50.322;18.892;2022-08-11T00:10:52;9.30;;;6.60;;
61938;SDS011;47897;50.322;18.892;2022-08-11T00:13:30;10.90;;;6.90;;
61938;SDS011;47897;50.322;18.892;2022-08-11T00:16:10;12.30;;;6.70;;
61938;SDS011;47897;50.322;18.892;2022-08-11T00:18:48;10.60;;;6.70;;
61938;SDS011;47897;50.322;18.892;2022-08-11T00:21:20;13.10;;;7.30;;
61938;SDS011;47897;50.322;18.892;2022-08-11T00:23:53;10.40;;;6.70;;
61938;SDS011;47897;50.322;18.892;2022-08-11T00:26:26;10.10;;;7.00;;
61938;SDS011;47897;50.322;18.892;2022-08-11T00:28:55;10.50;;;6.70;;
61938;SDS011;47897;50.322;18.892;2022-08-11T00:31:28;10.50;;;6.70;;
61938;SDS011;47897;50.322;18.892;2022-08-11T00:33:58;10.90;;;7.20;;
61938;SDS011;47897;50.322;18.892;2022-08-11T00:36:29;10.90;;;7.10;;
61938;SDS011;47897;50.322;18.892;2022-08-11T00:39:22;12.60;;;6.90;;
61938;SDS011;47897;50.322;18.892;2022-08-11T00:44:39;11.20;;;6.90;;
61938;SDS011;47897;50.322;18.892;2022-08-11T00:53:11;10.80;;;7.00;;
61938;SDS011;47897;50.322;18.892;2022-08-11T01:01:27;10.60;;;6.40;;
61938;SDS011;47897;50.322;18.892;2022-08-11T01:12:23;10.60;;;6.60;;
61938;SDS011;47897;50.322;18.892;2022-08-11T01:37:01;14.20;;;8.00;;
61938;SDS011;47897;50.322;18.892;2022-08-11T01:42:35;14.60;;;7.90;;
61938;SDS011;47897;50.322;18.892;2022-08-11T01:45:35;15.00;;;8.40;;
61938;SDS011;47897;50.322;18.892;2022-08-11T02:02:05;16.30;;;9.30;;
61938;SDS011;47897;50.322;18.892;2022-08-11T02:16:20;15.20;;;8.10;;
61938;SDS011;47897;50.322;18.892;2022-08-11T02:28:03;14.70;;;8.10;;
61938;SDS011;47897;50.322;18.892;2022-08-11T02:30:36;13.80;;;7.90;;
61938;SDS011;47897;50.322;18.892;2022-08-11T02:33:16;13.40;;;8.70;;
61938;SDS011;47897;50.322;18.892;2022-08-11T02:38:58;14.60;;;8.40;;
61938;SDS011;47897;50.322;18.892;2022-08-11T02:47:50;15.40;;;8.40;;
61938;SDS011;47897;50.322;18.892;2022-08-11T02:54:09;13.60;;;8.30;;
61938;SDS011;47897;50.322;18.892;2022-08-11T03:18:55;21.10;;;10.50;;
61938;SDS011;47897;50.322;18.892;2022-08-11T03:24:38;14.90;;;9.60;;
61938;SDS011;47897;50.322;18.892;2022-08-11T03:30:11;15.60;;;9.50;;
61938;SDS011;47897;50.322;18.892;2022-08-11T03:35:45;17.60;;;9.80;;
61938;SDS011;47897;50.322;18.892;2022-08-11T03:38:27;18.10;;;11.00;;
61938;SDS011;47897;50.322;18.892;2022-08-11T03:44:17;17.40;;;11.40;;
61938;SDS011;47897;50.322;18.892;2022-08-11T04:16:56;21.10;;;12.60;;
61938;SDS011;47897;50.322;18.892;2022-08-11T04:22:07;25.00;;;13.30;;
61938;SDS011;47897;50.322;18.892;2022-08-11T04:36:42;23.10;;;12.00;;
61938;SDS011;47897;50.322;18.892;2022-08-11T04:45:34;21.40;;;13.20;;
61938;SDS011;47897;50.322;18.892;2022-08-11T04:48:20;21.70;;;12.70;;
61938;SDS011;47897;50.322;18.892;2022-08-11T04:58:00;28.10;;;14.20;;
61938;SDS011;47897;50.322;18.892;2022-08-11T05:12:24;33.00;;;17.60;;
61938;SDS011;47897;50.322;18.892;2022-08-11T05:15:02;39.20;;;16.30;;
61938;SDS011;47897;50.322;18.892;2022-08-11T05:18:00;42.50;;;16.00;;
61938;SDS011;47897;50.322;18.892;2022-08-11T05:20:53;36.60;;;14.40;;
61938;SDS011;47897;50.322;18.892;2022-08-11T05:23:42;38.90;;;15.60;;
61938;SDS011;47897;50.322;18.892;2022-08-11T05:26:42;35.30;;;16.10;;
61938;SDS011;47897;50.322;18.892;2022-08-11T05:29:41;36.40;;;16.30;;
61938;SDS011;47897;50.322;18.892;2022-08-11T05:32:34;35.60;;;15.40;;
61938;SDS011;47897;50.322;18.892;2022-08-11T05:35:24;37.20;;;16.30;;
61938;SDS011;47897;50.322;18.892;2022-08-11T05:37:55;34.10;;;14.40;;
61938;SDS011;47897;50.322;18.892;2022-08-11T05:40:46;41.40;;;15.30;;
61938;SDS011;47897;50.322;18.892;2022-08-11T05:43:33;35.80;;;16.00;;
61938;SDS011;47897;50.322;18.892;2022-08-11T05:46:26;33.00;;;16.00;;
61938;SDS011;47897;50.322;18.892;2022-08-11T05:49:13;35.20;;;16.10;;
61938;SDS011;47897;50.322;18.892;2022-08-11T05:51:59;38.70;;;15.80;;
61938;SDS011;47897;50.322;18.892;2022-08-11T05:54:47;39.30;;;15.40;;
61938;SDS011;47897;50.322;18.892;2022-08-11T05:57:35;40.30;;;15.10;;
61938;SDS011;47897;50.322;18.892;2022-08-11T06:00:05;46.70;;;16.60;;
61938;SDS011;47897;50.322;18.892;2022-08-11T06:02:40;43.30;;;15.20;;
61938;SDS011;47897;50.322;18.892;2022-08-11T06:05:12;48.80;;;15.10;;
61938;SDS011;47897;50.322;18.892;2022-08-11T06:07:39;43.50;;;16.00;;
61938;SDS011;47897;50.322;18.892;2022-08-11T06:10:07;44.30;;;17.10;;
61938;SDS011;47897;50.322;18.892;2022-08-11T06:12:35;48.00;;;18.10;;
61938;SDS011;47897;50.322;18.892;2022-08-11T06:15:06;41.00;;;15.60;;
61938;SDS011;47897;50.322;18.892;2022-08-11T06:17:43;47.00;;;16.20;;
61938;SDS011;47897;50.322;18.892;2022-08-11T06:20:12;40.20;;;17.40;;
61938;SDS011;47897;50.322;18.892;2022-08-11T06:22:42;43.10;;;19.10;;
61938;SDS011;47897;50.322;18.892;2022-08-11T06:25:12;40.90;;;20.30;;
61938;SDS011;47897;50.322;18.892;2022-08-11T06:27:41;54.00;;;19.30;;
61938;SDS011;47897;50.322;18.892;2022-08-11T06:30:11;34.50;;;16.10;;
61938;SDS011;47897;50.322;18.892;2022-08-11T06:32:43;31.20;;;14.30;;
61938;SDS011;47897;50.322;18.892;2022-08-11T06:38:12;30.30;;;13.10;;
61938;SDS011;47897;50.322;18.892;2022-08-11T06:40:58;41.20;;;13.40;;
61938;SDS011;47897;50.322;18.892;2022-08-11T06:46:34;28.90;;;12.40;;
61938;SDS011;47897;50.322;18.892;2022-08-11T06:51:33;32.60;;;11.90;;
61938;SDS011;47897;50.322;18.892;2022-08-11T06:54:05;30.30;;;11.90;;
61938;SDS011;47897;50.322;18.892;2022-08-11T06:56:38;26.70;;;12.10;;
61938;SDS011;47897;50.322;18.892;2022-08-11T06:59:24;43.00;;;11.40;;
61938;SDS011;47897;50.322;18.892;2022-08-11T07:02:15;23.10;;;10.80;;
61938;SDS011;47897;50.322;18.892;2022-08-11T07:04:52;21.80;;;9.90;;
61938;SDS011;47897;50.322;18.892;2022-08-11T07:13:45;26.90;;;11.00;;
61938;SDS011;47897;50.322;18.892;2022-08-11T07:16:35;16.00;;;9.50;;
61938;SDS011;47897;50.322;18.892;2022-08-11T07:19:07;20.20;;;10.10;;
61938;SDS011;47897;50.322;18.892;2022-08-11T07:21:54;20.10;;;9.30;;
61938;SDS011;47897;50.322;18.892;2022-08-11T07:24:43;16.60;;;8.00;;
61938;SDS011;47897;50.322;18.892;2022-08-11T07:27:48;15.60;;;8.20;;
61938;SDS011;47897;50.322;18.892;2022-08-11T07:30:42;13.10;;;7.50;;
61938;SDS011;47897;50.322;18.892;2022-08-11T07:33:10;14.80;;;7.00;;
61938;SDS011;47897;50.322;18.892;2022-08-11T07:35:44;13.60;;;7.90;;
61938;SDS011;47897;50.322;18.892;2022-08-11T07:38:16;14.20;;;8.00;;
61938;SDS011;47897;50.322;18.892;2022-08-11T07:40:47;12.70;;;7.40;;
61938;SDS011;47897;50.322;18.892;2022-08-11T07:43:14;13.00;;;6.90;;
61938;SDS011;47897;50.322;18.892;2022-08-11T07:45:42;13.70;;;7.20;;
61938;SDS011;47897;50.322;18.892;2022-08-11T07:48:30;14.10;;;6.10;;
61938;SDS011;47897;50.322;18.892;2022-08-11T07:51:18;15.30;;;6.00;;
61938;SDS011;47897;50.322;18.892;2022-08-11T07:54:05;13.20;;;6.00;;
61938;SDS011;47897;50.322;18.892;2022-08-11T07:56:34;15.50;;;5.90;;
61938;SDS011;47897;50.322;18.892;2022-08-11T07:59:03;18.20;;;7.30;;
61938;SDS011;47897;50.322;18.892;2022-08-11T08:01:50;18.20;;;7.20;;
61938;SDS011;47897;50.322;18.892;2022-08-11T08:04:35;13.50;;;6.10;;
61938;SDS011;47897;50.322;18.892;2022-08-11T08:07:21;10.90;;;6.10;;
61938;SDS011;47897;50.322;18.892;2022-08-11T08:10:08;11.10;;;5.80;;
61938;SDS011;47897;50.322;18.892;2022-08-11T08:12:54;12.20;;;6.30;;
61938;SDS011;47897;50.322;18.892;2022-08-11T08:15:41;10.50;;;5.80;;
61938;SDS011;47897;50.322;18.892;2022-08-11T08:18:33;12.50;;;6.20;;
61938;SDS011;47897;50.322;18.892;2022-08-11T08:21:03;12.60;;;6.60;;
61938;SDS011;47897;50.322;18.892;2022-08-11T08:23:37;17.50;;;6.70;;
61938;SDS011;47897;50.322;18.892;2022-08-11T08:26:08;13.60;;;6.90;;
61938;SDS011;47897;50.322;18.892;2022-08-11T08:28:59;24.90;;;7.20;;
61938;SDS011;47897;50.322;18.892;2022-08-11T08:31:47;14.70;;;6.20;;
61938;SDS011;47897;50.322;18.892;2022-08-11T08:34:15;15.00;;;6.50;;
61938;SDS011;47897;50.322;18.892;2022-08-11T08:36:44;18.20;;;6.20;;
61938;SDS011;47897;50.322;18.892;2022-08-11T08:39:20;15.50;;;6.60;;
61938;SDS011;47897;50.322;18.892;2022-08-11T08:41:48;12.90;;;6.00;;
61938;SDS011;47897;50.322;18.892;2022-08-11T08:44:20;18.10;;;6.20;;
61938;SDS011;47897;50.322;18.892;2022-08-11T08:46:50;14.10;;;6.10;;
61938;SDS011;47897;50.322;18.892;2022-08-11T08:49:24;15.00;;;6.80;;
61938;SDS011;47897;50.322;18.892;2022-08-11T08:51:57;12.70;;;6.00;;
61938;SDS011;47897;50.322;18.892;2022-08-11T08:54:31;12.90;;;5.90;;
61938;SDS011;47897;50.322;18.892;2022-08-11T08:57:03;12.40;;;5.50;;
61938;SDS011;47897;50.322;18.892;2022-08-11T08:59:36;10.30;;;5.00;;
61938;SDS011;47897;50.322;18.892;2022-08-11T09:02:07;10.20;;;5.00;;
61938;SDS011;47897;50.322;18.892;2022-08-11T09:04:45;12.00;;;5.60;;
61938;SDS011;47897;50.322;18.892;2022-08-11T09:07:14;13.40;;;5.20;;
61938;SDS011;47897;50.322;18.892;2022-08-11T09:09:46;18.20;;;5.90;;
61938;SDS011;47897;50.322;18.892;2022-08-11T09:12:14;8.50;;;5.50;;
61938;SDS011;47897;50.322;18.892;2022-08-11T09:14:45;11.20;;;5.20;;
61938;SDS011;47897;50.322;18.892;2022-08-11T09:17:30;10.40;;;6.00;;
61938;SDS011;47897;50.322;18.892;2022-08-11T09:20:06;15.30;;;5.10;;
61938;SDS011;47897;50.322;18.892;2022-08-11T09:23:01;12.70;;;5.00;;
61938;SDS011;47897;50.322;18.892;2022-08-11T09:25:49;8.60;;;4.80;;
61938;SDS011;47897;50.322;18.892;2022-08-11T09:28:37;9.40;;;4.90;;
61938;SDS011;47897;50.322;18.892;2022-08-11T09:31:07;13.50;;;5.20;;
61938;SDS011;47897;50.322;18.892;2022-08-11T09:33:37;15.60;;;5.80;;
61938;SDS011;47897;50.322;18.892;2022-08-11T09:36:06;10.10;;;4.50;;
61938;SDS011;47897;50.322;18.892;2022-08-11T09:38:53;8.70;;;4.20;;
61938;SDS011;47897;50.322;18.892;2022-08-11T09:41:40;8.10;;;4.00;;
61938;SDS011;47897;50.322;18.892;2022-08-11T09:44:09;10.00;;;4.60;;
61938;SDS011;47897;50.322;18.892;2022-08-11T09:46:56;17.30;;;5.60;;
61938;SDS011;47897;50.322;18.892;2022-08-11T09:49:25;6.30;;;4.10;;
61938;SDS011;47897;50.322;18.892;2022-08-11T09:51:53;10.70;;;4.60;;
61938;SDS011;47897;50.322;18.892;2022-08-11T09:54:22;7.80;;;4.60;;
61938;SDS011;47897;50.322;18.892;2022-08-11T09:56:53;7.70;;;4.10;;
61938;SDS011;47897;50.322;18.892;2022-08-11T09:59:39;12.00;;;4.90;;
61938;SDS011;47897;50.322;18.892;2022-08-11T10:02:06;10.10;;;4.50;;
61938;SDS011;47897;50.322;18.892;2022-08-11T10:04:39;10.70;;;4.70;;
61938;SDS011;47897;50.322;18.892;2022-08-11T10:07:08;9.20;;;4.70;;
61938;SDS011;47897;50.322;18.892;2022-08-11T10:09:38;10.70;;;4.10;;
61938;SDS011;47897;50.322;18.892;2022-08-11T10:12:24;13.10;;;4.80;;
61938;SDS011;47897;50.322;18.892;2022-08-11T10:14:56;14.60;;;5.50;;
61938;SDS011;47897;50.322;18.892;2022-08-11T10:17:47;9.70;;;5.00;;
61938;SDS011;47897;50.322;18.892;2022-08-11T10:20:37;10.70;;;5.20;;
61938;SDS011;47897;50.322;18.892;2022-08-11T10:23:06;15.60;;;5.40;;
61938;SDS011;47897;50.322;18.892;2022-08-11T10:25:54;26.40;;;6.00;;
61938;SDS011;47897;50.322;18.892;2022-08-11T10:28:41;13.10;;;5.60;;
61938;SDS011;47897;50.322;18.892;2022-08-11T10:31:08;8.00;;;5.10;;
61938;SDS011;47897;50.322;18.892;2022-08-11T10:33:55;8.60;;;4.70;;
61938;SDS011;47897;50.322;18.892;2022-08-11T10:36:26;10.90;;;4.90;;
61938;SDS011;47897;50.322;18.892;2022-08-11T10:39:08;10.10;;;4.30;;
61938;SDS011;47897;50.322;18.892;2022-08-11T10:41:43;8.80;;;4.40;;
61938;SDS011;47897;50.322;18.892;2022-08-11T10:44:40;10.00;;;4.60;;
61938;SDS011;47897;50.322;18.892;2022-08-11T10:47:11;9.00;;;4.80;;
61938;SDS011;47897;50.322;18.892;2022-08-11T10:50:01;7.70;;;4.00;;
61938;SDS011;47897;50.322;18.892;2022-08-11T10:55:38;6.70;;;3.90;;
61938;SDS011;47897;50.322;18.892;2022-08-11T10:58:27;11.10;;;4.60;;
61938;SDS011;47897;50.322;18.892;2022-08-11T11:01:13;8.00;;;4.80;;
61938;SDS011;47897;50.322;18.892;2022-08-11T11:03:48;13.70;;;8.60;;
61938;SDS011;47897;50.322;18.892;2022-08-11T11:11:56;9.30;;;4.30;;
61938;SDS011;47897;50.322;18.892;2022-08-11T11:14:47;14.20;;;4.30;;
61938;SDS011;47897;50.322;18.892;2022-08-11T11:17:37;9.30;;;4.60;;
61938;SDS011;47897;50.322;18.892;2022-08-11T11:20:49;9.50;;;4.30;;
61938;SDS011;47897;50.322;18.892;2022-08-11T11:23:18;10.60;;;4.30;;
61938;SDS011;47897;50.322;18.892;2022-08-11T11:31:31;14.10;;;4.70;;
61938;SDS011;47897;50.322;18.892;2022-08-11T11:36:44;6.90;;;4.70;;
61938;SDS011;47897;50.322;18.892;2022-08-11T11:39:18;7.80;;;4.50;;
61938;SDS011;47897;50.322;18.892;2022-08-11T11:41:47;8.10;;;4.70;;
61938;SDS011;47897;50.322;18.892;2022-08-11T11:44:17;8.90;;;4.60;;
61938;SDS011;47897;50.322;18.892;2022-08-11T11:46:48;17.20;;;4.90;;
61938;SDS011;47897;50.322;18.892;2022-08-11T11:49:17;7.20;;;3.70;;
61938;SDS011;47897;50.322;18.892;2022-08-11T11:51:48;7.60;;;4.10;;
61938;SDS011;47897;50.322;18.892;2022-08-11T11:54:27;7.40;;;3.80;;
61938;SDS011;47897;50.322;18.892;2022-08-11T11:56:56;6.10;;;3.60;;
61938;SDS011;47897;50.322;18.892;2022-08-11T11:59:45;6.60;;;4.20;;
61938;SDS011;47897;50.322;18.892;2022-08-11T12:02:34;6.30;;;3.90;;
61938;SDS011;47897;50.322;18.892;2022-08-11T12:05:02;7.60;;;3.50;;
61938;SDS011;47897;50.322;18.892;2022-08-11T12:07:30;5.60;;;3.80;;
61938;SDS011;47897;50.322;18.892;2022-08-11T12:10:17;8.20;;;3.70;;
61938;SDS011;47897;50.322;18.892;2022-08-11T12:12:44;11.00;;;3.60;;
61938;SDS011;47897;50.322;18.892;2022-08-11T12:15:31;6.30;;;3.30;;
61938;SDS011;47897;50.322;18.892;2022-08-11T12:17:59;7.90;;;3.90;;
61938;SDS011;47897;50.322;18.892;2022-08-11T12:20:28;6.00;;;3.40;;
61938;SDS011;47897;50.322;18.892;2022-08-11T12:22:56;7.30;;;4.30;;
61938;SDS011;47897;50.322;18.892;2022-08-11T12:25:43;4.60;;;3.00;;
61938;SDS011;47897;50.322;18.892;2022-08-11T12:28:29;6.60;;;3.30;;
61938;SDS011;47897;50.322;18.892;2022-08-11T12:30:56;6.20;;;3.20;;
61938;SDS011;47897;50.322;18.892;2022-08-11T12:33:24;12.80;;;3.80;;
61938;SDS011;47897;50.322;18.892;2022-08-11T12:35:52;11.70;;;3.70;;
61938;SDS011;47897;50.322;18.892;2022-08-11T12:38:24;15.30;;;3.60;;
61938;SDS011;47897;50.322;18.892;2022-08-11T12:40:52;10.30;;;3.80;;
61938;SDS011;47897;50.322;18.892;2022-08-11T12:43:40;7.50;;;3.30;;
61938;SDS011;47897;50.322;18.892;2022-08-11T12:46:33;7.00;;;4.10;;
61938;SDS011;47897;50.322;18.892;2022-08-11T12:49:07;5.80;;;3.30;;
61938;SDS011;47897;50.322;18.892;2022-08-11T12:52:00;6.30;;;3.70;;
61938;SDS011;47897;50.322;18.892;2022-08-11T12:54:33;14.10;;;4.50;;
61938;SDS011;47897;50.322;18.892;2022-08-11T12:57:06;21.10;;;4.80;;
61938;SDS011;47897;50.322;18.892;2022-08-11T12:59:58;9.90;;;4.10;;
61938;SDS011;47897;50.322;18.892;2022-08-11T13:02:45;14.20;;;3.80;;
61938;SDS011;47897;50.322;18.892;2022-08-11T13:05:32;8.00;;;4.30;;
61938;SDS011;47897;50.322;18.892;2022-08-11T13:08:00;7.60;;;4.20;;
61938;SDS011;47897;50.322;18.892;2022-08-11T13:10:28;6.30;;;4.10;;
61938;SDS011;47897;50.322;18.892;2022-08-11T13:13:17;6.50;;;3.20;;
61938;SDS011;47897;50.322;18.892;2022-08-11T13:15:48;7.00;;;3.20;;
61938;SDS011;47897;50.322;18.892;2022-08-11T13:18:17;14.70;;;4.00;;
61938;SDS011;47897;50.322;18.892;2022-08-11T13:20:50;7.50;;;3.40;;
61938;SDS011;47897;50.322;18.892;2022-08-11T13:23:19;6.50;;;3.30;;
61938;SDS011;47897;50.322;18.892;2022-08-11T13:25:50;6.20;;;3.20;;
61938;SDS011;47897;50.322;18.892;2022-08-11T13:28:20;6.90;;;3.10;;
61938;SDS011;47897;50.322;18.892;2022-08-11T13:30:49;5.00;;;3.20;;
61938;SDS011;47897;50.322;18.892;2022-08-11T13:33:42;5.00;;;2.60;;
61938;SDS011;47897;50.322;18.892;2022-08-11T13:36:12;5.80;;;2.80;;
61938;SDS011;47897;50.322;18.892;2022-08-11T13:38:43;22.20;;;3.60;;
61938;SDS011;47897;50.322;18.892;2022-08-11T13:41:10;4.60;;;2.50;;
61938;SDS011;47897;50.322;18.892;2022-08-11T13:43:56;5.60;;;2.50;;
61938;SDS011;47897;50.322;18.892;2022-08-11T13:46:24;4.10;;;2.60;;
61938;SDS011;47897;50.322;18.892;2022-08-11T13:48:55;4.10;;;3.00;;
61938;SDS011;47897;50.322;18.892;2022-08-11T13:51:23;8.00;;;3.10;;
61938;SDS011;47897;50.322;18.892;2022-08-11T13:54:02;8.90;;;3.20;;
61938;SDS011;47897;50.322;18.892;2022-08-11T13:56:35;5.60;;;2.50;;
61938;SDS011;47897;50.322;18.892;2022-08-11T13:59:07;4.80;;;2.40;;
61938;SDS011;47897;50.322;18.892;2022-08-11T14:01:39;4.00;;;2.20;;
61938;SDS011;47897;50.322;18.892;2022-08-11T14:04:29;5.10;;;2.20;;
61938;SDS011;47897;50.322;18.892;2022-08-11T14:07:02;5.20;;;3.00;;
61938;SDS011;47897;50.322;18.892;2022-08-11T14:09:36;4.50;;;2.30;;
61938;SDS011;47897;50.322;18.892;2022-08-11T14:12:16;60.80;;;8.50;;
61938;SDS011;47897;50.322;18.892;2022-08-11T14:15:15;40.80;;;5.60;;
61938;SDS011;47897;50.322;18.892;2022-08-11T14:17:53;27.20;;;4.50;;
61938;SDS011;47897;50.322;18.892;2022-08-11T14:20:27;18.90;;;4.40;;
61938;SDS011;47897;50.322;18.892;2022-08-11T14:23:25;9.80;;;3.90;;
61938;SDS011;47897;50.322;18.892;2022-08-11T14:25:54;23.80;;;5.60;;
61938;SDS011;47897;50.322;18.892;2022-08-11T14:28:41;8.30;;;3.20;;
61938;SDS011;47897;50.322;18.892;2022-08-11T14:31:08;10.60;;;3.90;;
61938;SDS011;47897;50.322;18.892;2022-08-11T14:33:36;8.80;;;3.50;;
61938;SDS011;47897;50.322;18.892;2022-08-11T14:36:04;7.80;;;3.50;;
61938;SDS011;47897;50.322;18.892;2022-08-11T14:38:34;8.20;;;4.10;;
61938;SDS011;47897;50.322;18.892;2022-08-11T14:41:03;6.00;;;3.60;;
61938;SDS011;47897;50.322;18.892;2022-08-11T14:43:52;8.00;;;4.70;;
61938;SDS011;47897;50.322;18.892;2022-08-11T14:46:39;5.80;;;4.00;;
61938;SDS011;47897;50.322;18.892;2022-08-11T14:49:26;6.10;;;3.50;;
61938;SDS011;47897;50.322;18.892;2022-08-11T14:51:54;5.60;;;3.60;;
61938;SDS011;47897;50.322;18.892;2022-08-11T14:54:24;7.90;;;3.90;;
61938;SDS011;47897;50.322;18.892;2022-08-11T14:57:12;8.50;;;4.00;;
61938;SDS011;47897;50.322;18.892;2022-08-11T14:59:41;7.30;;;4.20;;
61938;SDS011;47897;50.322;18.892;2022-08-11T15:02:10;10.30;;;4.10;;
61938;SDS011;47897;50.322;18.892;2022-08-11T15:04:57;8.60;;;4.10;;
61938;SDS011;47897;50.322;18.892;2022-08-11T15:07:25;11.10;;;4.00;;
61938;SDS011;47897;50.322;18.892;2022-08-11T15:09:57;6.50;;;4.40;;
61938;SDS011;47897;50.322;18.892;2022-08-11T15:12:26;9.80;;;5.90;;
61938;SDS011;47897;50.322;18.892;2022-08-11T15:14:55;9.30;;;5.90;;
61938;SDS011;47897;50.322;18.892;2022-08-11T15:17:41;6.80;;;5.30;;
61938;SDS011;47897;50.322;18.892;2022-08-11T15:20:12;7.20;;;5.10;;
61938;SDS011;47897;50.322;18.892;2022-08-11T15:23:02;7.70;;;4.20;;
61938;SDS011;47897;50.322;18.892;2022-08-11T15:25:50;9.40;;;5.50;;
61938;SDS011;47897;50.322;18.892;2022-08-11T15:28:22;11.40;;;4.70;;
61938;SDS011;47897;50.322;18.892;2022-08-11T15:31:10;11.40;;;4.70;;
61938;SDS011;47897;50.322;18.892;2022-08-11T15:33:56;7.70;;;4.50;;
61938;SDS011;47897;50.322;18.892;2022-08-11T15:36:47;13.20;;;5.10;;
61938;SDS011;47897;50.322;18.892;2022-08-11T15:39:38;11.70;;;5.00;;
61938;SDS011;47897;50.322;18.892;2022-08-11T15:42:32;7.00;;;5.00;;
61938;SDS011;47897;50.322;18.892;2022-08-11T15:45:23;13.30;;;5.90;;
61938;SDS011;47897;50.322;18.892;2022-08-11T15:48:10;9.40;;;6.10;;
61938;SDS011;47897;50.322;18.892;2022-08-11T15:50:41;9.40;;;5.40;;
61938;SDS011;47897;50.322;18.892;2022-08-11T15:53:17;6.70;;;5.30;;
61938;SDS011;47897;50.322;18.892;2022-08-11T15:55:52;8.70;;;5.40;;
61938;SDS011;47897;50.322;18.892;2022-08-11T15:58:21;8.70;;;5.50;;
61938;SDS011;47897;50.322;18.892;2022-08-11T16:01:09;8.60;;;4.90;;
61938;SDS011;47897;50.322;18.892;2022-08-11T16:04:00;11.60;;;5.80;;
61938;SDS011;47897;50.322;18.892;2022-08-11T16:06:39;12.40;;;5.90;;
61938;SDS011;47897;50.322;18.892;2022-08-11T16:09:10;10.50;;;5.60;;
61938;SDS011;47897;50.322;18.892;2022-08-11T16:11:40;10.10;;;7.50;;
61938;SDS011;47897;50.322;18.892;2022-08-11T16:14:10;11.50;;;6.40;;
61938;SDS011;47897;50.322;18.892;2022-08-11T16:16:56;11.10;;;5.90;;
61938;SDS011;47897;50.322;18.892;2022-08-11T16:19:26;11.20;;;7.80;;
61938;SDS011;47897;50.322;18.892;2022-08-11T16:22:07;12.30;;;7.30;;
61938;SDS011;47897;50.322;18.892;2022-08-11T16:24:38;9.40;;;5.90;;
61938;SDS011;47897;50.322;18.892;2022-08-11T16:27:10;12.20;;;7.80;;
61938;SDS011;47897;50.322;18.892;2022-08-11T16:29:42;13.70;;;6.90;;
61938;SDS011;47897;50.322;18.892;2022-08-11T16:32:15;10.20;;;6.90;;
61938;SDS011;47897;50.322;18.892;2022-08-11T16:34:49;18.00;;;6.80;;
61938;SDS011;47897;50.322;18.892;2022-08-11T16:37:55;13.70;;;6.50;;
61938;SDS011;47897;50.322;18.892;2022-08-11T16:40:41;10.80;;;6.20;;
61938;SDS011;47897;50.322;18.892;2022-08-11T16:43:11;13.60;;;7.10;;
61938;SDS011;47897;50.322;18.892;2022-08-11T16:45:59;10.40;;;6.00;;
61938;SDS011;47897;50.322;18.892;2022-08-11T16:48:48;10.60;;;5.70;;
61938;SDS011;47897;50.322;18.892;2022-08-11T16:51:18;13.80;;;7.20;;
61938;SDS011;47897;50.322;18.892;2022-08-11T16:53:48;11.70;;;6.20;;
61938;SDS011;47897;50.322;18.892;2022-08-11T16:56:18;10.00;;;6.10;;
61938;SDS011;47897;50.322;18.892;2022-08-11T16:58:54;13.30;;;6.70;;
61938;SDS011;47897;50.322;18.892;2022-08-11T17:07:15;15.00;;;7.40;;
61938;SDS011;47897;50.322;18.892;2022-08-11T17:10:04;15.70;;;7.70;;
61938;SDS011;47897;50.322;18.892;2022-08-11T17:12:51;20.10;;;8.20;;
61938;SDS011;47897;50.322;18.892;2022-08-11T17:15:46;14.20;;;7.40;;
61938;SDS011;47897;50.322;18.892;2022-08-11T17:21:11;19.10;;;8.10;;
61938;SDS011;47897;50.322;18.892;2022-08-11T17:23:43;23.40;;;8.60;;
61938;SDS011;47897;50.322;18.892;2022-08-11T17:31:56;15.20;;;8.20;;
61938;SDS011;47897;50.322;18.892;2022-08-11T17:34:49;12.00;;;7.50;;
61938;SDS011;47897;50.322;18.892;2022-08-11T17:37:39;12.50;;;7.50;;
61938;SDS011;47897;50.322;18.892;2022-08-11T17:40:08;15.30;;;8.80;;
61938;SDS011;47897;50.322;18.892;2022-08-11T17:42:40;17.20;;;8.00;;
61938;SDS011;47897;50.322;18.892;2022-08-11T17:45:29;17.70;;;8.10;;
61938;SDS011;47897;50.322;18.892;2022-08-11T17:48:28;13.80;;;8.70;;
61938;SDS011;47897;50.322;18.892;2022-08-11T17:53:41;17.00;;;8.40;;
61938;SDS011;47897;50.322;18.892;2022-08-11T17:56:30;18.30;;;8.20;;
61938;SDS011;47897;50.322;18.892;2022-08-11T17:59:23;13.90;;;7.90;;
61938;SDS011;47897;50.322;18.892;2022-08-11T18:02:40;19.50;;;8.70;;
61938;SDS011;47897;50.322;18.892;2022-08-11T18:05:37;16.00;;;9.20;;
61938;SDS011;47897;50.322;18.892;2022-08-11T18:08:10;20.00;;;10.30;;
61938;SDS011;47897;50.322;18.892;2022-08-11T18:11:12;24.70;;;10.60;;
61938;SDS011;47897;50.322;18.892;2022-08-11T18:14:05;24.00;;;12.00;;
61938;SDS011;47897;50.322;18.892;2022-08-11T18:16:53;23.50;;;12.10;;
61938;SDS011;47897;50.322;18.892;2022-08-11T18:20:00;23.60;;;11.40;;
61938;SDS011;47897;50.322;18.892;2022-08-11T18:23:04;26.00;;;11.40;;
61938;SDS011;47897;50.322;18.892;2022-08-11T18:26:01;32.70;;;13.50;;
61938;SDS011;47897;50.322;18.892;2022-08-11T18:28:52;25.70;;;13.20;;
61938;SDS011;47897;50.322;18.892;2022-08-11T18:31:41;22.10;;;12.20;;
61938;SDS011;47897;50.322;18.892;2022-08-11T18:34:39;23.10;;;12.00;;
61938;SDS011;47897;50.322;18.892;2022-08-11T18:37:27;21.30;;;11.60;;
61938;SDS011;47897;50.322;18.892;2022-08-11T18:40:25;23.00;;;13.10;;
61938;SDS011;47897;50.322;18.892;2022-08-11T18:43:13;21.10;;;13.30;;
61938;SDS011;47897;50.322;18.892;2022-08-11T18:46:04;25.10;;;13.70;;
61938;SDS011;47897;50.322;18.892;2022-08-11T18:48:52;22.30;;;13.10;;
61938;SDS011;47897;50.322;18.892;2022-08-11T18:51:45;24.30;;;13.70;;
61938;SDS011;47897;50.322;18.892;2022-08-11T18:54:33;29.80;;;14.90;;
61938;SDS011;47897;50.322;18.892;2022-08-11T18:57:21;25.50;;;14.40;;
61938;SDS011;47897;50.322;18.892;2022-08-11T19:00:09;29.80;;;15.10;;
61938;SDS011;47897;50.322;18.892;2022-08-11T19:02:55;34.80;;;16.20;;
61938;SDS011;47897;50.322;18.892;2022-08-11T19:05:44;33.00;;;16.30;;
61938;SDS011;47897;50.322;18.892;2022-08-11T19:08:39;32.00;;;16.20;;
61938;SDS011;47897;50.322;18.892;2022-08-11T19:11:27;29.40;;;16.10;;
61938;SDS011;47897;50.322;18.892;2022-08-11T19:14:15;34.10;;;16.30;;
61938;SDS011;47897;50.322;18.892;2022-08-11T19:17:03;31.50;;;15.80;;
61938;SDS011;47897;50.322;18.892;2022-08-11T19:19:55;28.10;;;15.30;;
61938;SDS011;47897;50.322;18.892;2022-08-11T19:22:50;25.70;;;14.50;;
61938;SDS011;47897;50.322;18.892;2022-08-11T19:25:39;30.30;;;16.90;;
61938;SDS011;47897;50.322;18.892;2022-08-11T19:28:28;29.00;;;14.00;;
61938;SDS011;47897;50.322;18.892;2022-08-11T19:31:15;26.50;;;15.40;;
61938;SDS011;47897;50.322;18.892;2022-08-11T19:34:01;23.70;;;15.10;;
61938;SDS011;47897;50.322;18.892;2022-08-11T19:36:50;27.90;;;14.70;;
61938;SDS011;47897;50.322;18.892;2022-08-11T19:39:39;19.90;;;13.10;;
61938;SDS011;47897;50.322;18.892;2022-08-11T19:42:26;23.80;;;14.50;;